createdAt,value
2018-08-24T00:00:13.796Z,86.21
2018-08-24T00:02:42.573Z,86.34
2018-08-24T00:05:11.332Z,86.47
2018-08-24T00:07:40.056Z,86.17
2018-08-24T00:10:09.131Z,86.41
2018-08-24T00:12:37.923Z,86.49
2018-08-24T00:15:06.782Z,86.38
2018-08-24T00:17:35.585Z,86.56
2018-08-24T00:20:04.327Z,86.30
2018-08-24T00:22:35.105Z,85.40
2018-08-24T00:25:04.012Z,85.01
2018-08-24T00:27:32.741Z,86.55
2018-08-24T00:30:01.532Z,86.89
2018-08-24T00:32:30.260Z,85.90
2018-08-24T00:34:59.014Z,85.04
2018-08-24T00:37:27.740Z,85.12
2018-08-24T00:39:56.430Z,84.50
2018-08-24T00:42:25.152Z,83.96
2018-08-24T00:44:53.922Z,83.80
2018-08-24T00:47:22.626Z,84.21
2018-08-24T00:49:51.375Z,84.24
2018-08-24T00:52:20.441Z,83.82
2018-08-24T00:54:49.203Z,83.02
2018-08-24T00:57:18.021Z,83.12
2018-08-24T00:59:46.820Z,83.48
2018-08-24T01:02:15.978Z,83.02
2018-08-24T01:04:44.755Z,83.28
2018-08-24T01:07:14.565Z,83.46
2018-08-24T01:09:44.284Z,84.11
2018-08-24T01:12:15.153Z,83.49
2018-08-24T01:14:45.028Z,82.85
2018-08-24T01:17:19.124Z,82.27
2018-08-24T01:19:48.243Z,83.16
2018-08-24T01:22:17.205Z,83.53
2018-08-24T01:24:45.947Z,83.94
2018-08-24T01:27:14.739Z,83.29
2018-08-24T01:29:44.514Z,82.83
2018-08-24T01:32:14.526Z,82.95
2018-08-24T01:34:43.294Z,83.76
2018-08-24T01:37:12.028Z,83.95
2018-08-24T01:39:40.764Z,83.87
2018-08-24T01:42:09.436Z,84.02
2018-08-24T01:44:38.154Z,83.97
2018-08-24T01:47:06.830Z,83.65
2018-08-24T01:49:36.687Z,83.57
2018-08-24T01:52:05.349Z,83.18
2018-08-24T01:54:34.076Z,83.63
2018-08-24T01:57:02.780Z,83.93
2018-08-24T01:59:31.489Z,83.69
2018-08-24T02:02:00.182Z,83.13
2018-08-24T02:04:28.948Z,83.35
2018-08-24T02:06:57.644Z,83.10
2018-08-24T02:09:26.365Z,83.98
2018-08-24T02:11:55.110Z,84.20
2018-08-24T02:14:29.195Z,84.31
2018-08-24T02:16:57.928Z,84.29
2018-08-24T02:19:31.934Z,84.56
2018-08-24T02:22:05.895Z,84.42
2018-08-24T02:24:34.617Z,84.95
2018-08-24T02:27:03.306Z,84.90
2018-08-24T02:29:32.036Z,85.27
2018-08-24T02:32:00.726Z,85.23
2018-08-24T02:34:29.403Z,85.37
2018-08-24T02:36:58.123Z,84.69
2018-08-24T02:39:26.805Z,84.59
2018-08-24T02:41:55.465Z,84.53
2018-08-24T02:44:24.139Z,84.33
2018-08-24T02:46:52.847Z,83.90
2018-08-24T02:49:21.558Z,83.86
2018-08-24T02:51:50.250Z,83.86
2018-08-24T02:54:18.970Z,83.57
2018-08-24T02:56:48.629Z,83.40
2018-08-24T02:59:17.343Z,83.02
2018-08-24T03:01:46.087Z,83.33
2018-08-24T03:04:14.839Z,83.85
2018-08-24T03:06:44.591Z,83.81
2018-08-24T03:09:13.303Z,83.83
2018-08-24T03:11:42.066Z,83.98
2018-08-24T03:14:10.734Z,83.69
2018-08-24T03:16:39.420Z,83.90
2018-08-24T03:19:08.103Z,83.64
2018-08-24T03:21:36.864Z,84.33
2018-08-24T03:24:05.538Z,84.34
2018-08-24T03:26:34.244Z,84.63
2018-08-24T03:29:02.975Z,83.57
2018-08-24T03:31:31.638Z,84.27
2018-08-24T03:34:00.315Z,83.99
2018-08-24T03:36:29.008Z,83.30
2018-08-24T03:38:57.701Z,83.81
2018-08-24T03:41:26.422Z,84.59
2018-08-24T03:43:55.155Z,84.50
2018-08-24T03:46:23.964Z,84.60
2018-08-24T03:48:52.673Z,84.23
2018-08-24T03:51:21.415Z,84.33
2018-08-24T03:53:50.068Z,84.46
2018-08-24T03:56:18.800Z,84.37
2018-08-24T03:58:47.511Z,83.98
2018-08-24T04:01:16.340Z,83.94
2018-08-24T04:03:45.041Z,83.69
2018-08-24T04:06:13.780Z,84.02
2018-08-24T04:08:42.511Z,83.79
2018-08-24T04:11:11.218Z,83.60
2018-08-24T04:13:39.933Z,83.53
2018-08-24T04:16:08.635Z,82.73
2018-08-24T04:18:37.375Z,82.47
2018-08-24T04:21:06.112Z,81.94
2018-08-24T04:23:34.810Z,81.94
2018-08-24T04:26:03.546Z,81.87
2018-08-24T04:28:32.225Z,81.29
2018-08-24T04:31:00.950Z,81.32
2018-08-24T04:33:29.694Z,81.51
2018-08-24T04:35:58.358Z,81.46
2018-08-24T04:38:27.088Z,81.41
2018-08-24T04:40:56.282Z,81.18
2018-08-24T04:43:24.994Z,80.84
2018-08-24T04:45:53.676Z,81.06
2018-08-24T04:48:22.766Z,80.66
2018-08-24T04:50:51.552Z,81.38
2018-08-24T04:53:20.277Z,81.79
2018-08-24T04:55:49.008Z,81.38
2018-08-24T04:58:17.779Z,80.90
2018-08-24T05:00:46.451Z,81.89
2018-08-24T05:03:15.147Z,80.58
2018-08-24T05:05:43.915Z,79.81
2018-08-24T05:08:12.517Z,80.10
2018-08-24T05:10:41.234Z,79.34
2018-08-24T05:13:09.917Z,78.90
2018-08-24T05:15:39.176Z,79.47
2018-08-24T05:18:07.879Z,78.88
2018-08-24T05:20:37.173Z,78.71
2018-08-24T05:23:05.921Z,78.90
2018-08-24T05:25:34.611Z,78.42
2018-08-24T05:28:03.385Z,77.93
2018-08-24T05:30:32.010Z,77.48
2018-08-24T05:33:00.729Z,77.98
2018-08-24T05:35:29.499Z,77.16
2018-08-24T05:37:58.194Z,78.55
2018-08-24T05:40:26.968Z,79.20
2018-08-24T05:42:55.670Z,78.75
2018-08-24T05:45:24.556Z,78.10
2018-08-24T05:47:53.276Z,78.00
2018-08-24T05:50:21.943Z,78.07
2018-08-24T05:52:50.935Z,77.49
2018-08-24T05:55:19.623Z,77.87
2018-08-24T05:57:48.343Z,77.71
2018-08-24T06:00:17.397Z,77.38
2018-08-24T06:02:46.592Z,76.94
2018-08-24T06:05:15.311Z,77.18
2018-08-24T06:07:44.021Z,77.07
2018-08-24T06:10:12.711Z,77.39
2018-08-24T06:12:41.507Z,77.58
2018-08-24T06:15:10.488Z,77.56
2018-08-24T06:17:44.636Z,77.23
2018-08-24T06:20:13.523Z,77.45
2018-08-24T06:22:42.240Z,77.39
2018-08-24T06:25:11.512Z,76.10
2018-08-24T06:27:40.237Z,77.22
2018-08-24T06:30:09.284Z,76.32
2018-08-24T06:32:38.216Z,76.68
2018-08-24T06:35:07.102Z,76.66
2018-08-24T06:37:35.776Z,76.29
2018-08-24T06:40:04.649Z,76.04
2018-08-24T06:42:33.429Z,74.84
2018-08-24T06:45:02.256Z,73.70
2018-08-24T06:47:31.049Z,74.16
2018-08-24T06:49:59.764Z,74.40
2018-08-24T06:52:28.441Z,73.53
2018-08-24T06:54:57.149Z,73.47
2018-08-24T06:57:26.034Z,72.40
2018-08-24T06:59:54.791Z,73.19
2018-08-24T07:02:23.461Z,73.37
2018-08-24T07:04:52.159Z,73.61
2018-08-24T07:07:20.944Z,73.85
2018-08-24T07:09:49.634Z,74.49
2018-08-24T07:12:18.288Z,74.79
2018-08-24T07:14:46.951Z,75.05
2018-08-24T07:17:19.998Z,75.41
2018-08-24T07:19:48.778Z,75.75
2018-08-24T07:22:17.550Z,75.71
2018-08-24T07:24:46.217Z,76.41
2018-08-24T07:27:14.897Z,75.85
2018-08-24T07:29:43.576Z,75.42
2018-08-24T07:32:12.305Z,75.39
2018-08-24T07:34:40.964Z,74.30
2018-08-24T07:37:09.717Z,73.84
2018-08-24T07:39:38.443Z,73.80
2018-08-24T07:42:07.190Z,72.21
2018-08-24T07:44:55.293Z,70.12
2018-08-24T07:47:24.731Z,68.40
2018-08-24T07:49:54.023Z,67.24
2018-08-24T07:52:22.676Z,66.74
2018-08-24T07:54:51.405Z,66.08
2018-08-24T07:57:20.086Z,64.27
2018-08-24T07:59:49.128Z,64.08
2018-08-24T08:02:17.841Z,63.62
2018-08-24T08:04:47.074Z,62.98
2018-08-24T08:07:15.764Z,62.79
2018-08-24T08:09:44.428Z,61.84
2018-08-24T08:12:13.063Z,60.18
2018-08-24T08:14:46.051Z,59.14
2018-08-24T08:17:15.193Z,58.08
2018-08-24T08:19:43.840Z,58.56
2018-08-24T08:22:12.540Z,58.44
2018-08-24T08:24:41.213Z,57.21
2018-08-24T08:27:09.879Z,55.59
2018-08-24T08:29:44.135Z,53.64
2018-08-24T08:32:12.856Z,53.15
2018-08-24T08:34:46.986Z,50.41
2018-08-24T08:37:15.735Z,50.90
2018-08-24T08:39:44.460Z,52.03
2018-08-24T08:42:13.184Z,52.25
2018-08-24T08:44:41.931Z,52.54
2018-08-24T08:47:10.658Z,52.83
2018-08-24T08:49:39.348Z,53.06
2018-08-24T08:52:08.225Z,53.53
2018-08-24T08:54:36.883Z,53.55
2018-08-24T08:57:05.593Z,53.96
2018-08-24T08:59:34.743Z,53.51
2018-08-24T09:02:03.652Z,52.07
2018-08-24T09:04:32.341Z,52.35
2018-08-24T09:07:00.998Z,51.87
2018-08-24T09:09:29.649Z,52.53
2018-08-24T09:11:58.318Z,52.99
2018-08-24T09:14:27.050Z,54.40
2018-08-24T09:16:55.693Z,55.47
2018-08-24T09:19:29.744Z,54.44
2018-08-24T09:22:03.694Z,55.35
2018-08-24T09:24:37.748Z,55.03
2018-08-24T09:27:12.312Z,56.10
2018-08-24T09:29:41.032Z,58.25
2018-08-24T09:32:09.720Z,59.07
2018-08-24T09:34:38.425Z,58.85
2018-08-24T09:37:12.412Z,58.11
2018-08-24T09:39:42.066Z,56.80
2018-08-24T09:42:10.731Z,53.83
2018-08-24T09:44:39.405Z,55.44
2018-08-24T09:47:14.308Z,54.05
2018-08-24T09:49:43.021Z,54.62
2018-08-24T09:52:17.161Z,51.45
2018-08-24T09:54:45.832Z,49.45
2018-08-24T09:57:14.810Z,48.39
2018-08-24T09:59:43.524Z,48.13
2018-08-24T10:02:17.473Z,48.04
2018-08-24T10:04:51.514Z,47.32
2018-08-24T10:07:28.258Z,46.72
2018-08-24T10:09:57.841Z,44.60
2018-08-24T10:12:26.524Z,43.31
2018-08-24T10:14:55.247Z,42.68
2018-08-24T10:17:26.598Z,43.52
2018-08-24T10:19:55.315Z,43.71
2018-08-24T10:22:24.017Z,45.66
2018-08-24T10:24:52.790Z,45.87
2018-08-24T10:27:21.528Z,46.04
2018-08-24T10:29:50.270Z,46.85
2018-08-24T10:32:18.910Z,46.93
2018-08-24T10:34:48.178Z,47.36
2018-08-24T10:37:16.932Z,47.20
2018-08-24T10:39:45.661Z,46.96
2018-08-24T10:42:14.323Z,48.35
2018-08-24T10:44:43.061Z,49.56
2018-08-24T10:47:12.167Z,50.42
2018-08-24T10:49:41.163Z,51.45
2018-08-24T10:52:09.865Z,51.31
2018-08-24T10:54:38.560Z,51.59
2018-08-24T10:57:07.278Z,51.58
2018-08-24T10:59:35.927Z,51.31
2018-08-24T11:02:05.086Z,51.61
2018-08-24T11:04:34.299Z,51.21
2018-08-24T11:07:02.988Z,51.16
2018-08-24T11:09:31.984Z,52.50
2018-08-24T11:12:00.703Z,51.79
2018-08-24T11:14:29.358Z,52.22
2018-08-24T11:16:58.124Z,51.64
2018-08-24T11:19:26.821Z,52.38
2018-08-24T11:21:55.522Z,53.25
2018-08-24T11:24:24.889Z,52.58
2018-08-24T11:26:53.603Z,52.50
2018-08-24T11:29:22.446Z,51.30
2018-08-24T11:31:51.160Z,51.62
2018-08-24T11:34:19.896Z,52.11
2018-08-24T11:36:48.633Z,51.99
2018-08-24T11:39:17.753Z,52.57
2018-08-24T11:41:46.520Z,52.49
2018-08-24T11:44:15.196Z,52.27
2018-08-24T11:46:43.873Z,52.77
2018-08-24T11:49:12.612Z,52.65
2018-08-24T11:51:41.381Z,52.40
2018-08-24T11:54:10.243Z,52.10
2018-08-24T11:56:38.896Z,52.80
2018-08-24T11:59:07.997Z,52.04
2018-08-24T12:01:36.684Z,51.43
2018-08-24T12:04:05.445Z,51.54
2018-08-24T12:06:34.516Z,51.62
2018-08-24T12:09:04.732Z,51.35
2018-08-24T12:11:33.403Z,51.34
2018-08-24T12:14:02.285Z,50.87
2018-08-24T12:16:30.900Z,51.09
2018-08-24T12:19:00.461Z,50.22
2018-08-24T12:24:29.193Z,50.10
2018-08-24T12:26:57.823Z,51.58
2018-08-24T12:29:27.040Z,50.83
2018-08-24T12:31:55.808Z,50.84
2018-08-24T12:34:24.604Z,52.09
2018-08-24T12:36:53.997Z,52.29
2018-08-24T12:39:22.716Z,52.42
2018-08-24T12:41:51.516Z,51.91
2018-08-24T12:44:20.177Z,52.30
2018-08-24T12:46:49.444Z,52.20
2018-08-24T12:49:18.618Z,54.66
2018-08-24T12:51:47.280Z,55.45
2018-08-24T12:54:16.081Z,56.51
2018-08-24T12:56:49.687Z,59.46
2018-08-24T12:59:18.767Z,62.28
2018-08-24T13:01:49.082Z,62.83
2018-08-24T13:04:18.747Z,62.01
2018-08-24T13:06:49.819Z,59.80
2018-08-24T13:09:21.143Z,58.48
2018-08-24T13:11:51.261Z,58.91
2018-08-24T13:14:20.378Z,58.84
2018-08-24T13:16:49.060Z,58.91
2018-08-24T13:19:17.772Z,58.83
2018-08-24T13:21:46.481Z,58.11
2018-08-24T13:24:17.114Z,57.07
2018-08-24T13:26:45.759Z,57.69
2018-08-24T13:29:14.528Z,56.45
2018-08-24T13:31:43.782Z,56.66
2018-08-24T13:34:12.434Z,55.87
2018-08-24T13:36:41.108Z,55.13
2018-08-24T13:39:09.968Z,54.21
2018-08-24T13:41:38.836Z,52.06
2018-08-24T13:44:07.540Z,51.75
2018-08-24T13:46:36.673Z,50.85
2018-08-24T13:49:05.427Z,50.06
2018-08-24T13:51:34.187Z,48.88
2018-08-24T13:54:02.956Z,49.25
2018-08-24T13:56:31.662Z,52.06
2018-08-24T13:59:00.327Z,52.09
2018-08-24T14:01:29.609Z,50.73
2018-08-24T14:03:58.925Z,48.88
2018-08-24T14:06:28.105Z,49.24
2018-08-24T14:08:56.820Z,49.75
2018-08-24T14:11:26.086Z,50.56
2018-08-24T14:13:54.986Z,48.67
2018-08-24T14:16:23.867Z,48.46
2018-08-24T14:18:52.663Z,47.99
2018-08-24T14:21:21.350Z,49.11
2018-08-24T14:23:50.063Z,49.26
2018-08-24T14:26:18.740Z,48.69
2018-08-24T14:28:47.382Z,48.26
2018-08-24T14:31:16.467Z,47.59
2018-08-24T14:33:45.145Z,47.87
2018-08-24T14:36:14.501Z,46.40
2018-08-24T14:38:43.160Z,45.62
2018-08-24T14:41:11.841Z,45.24
2018-08-24T14:43:40.520Z,45.17
2018-08-24T14:46:09.184Z,44.01
2018-08-24T14:48:37.933Z,45.88
2018-08-24T14:51:07.754Z,43.09
2018-08-24T14:53:36.466Z,43.74
2018-08-24T14:56:05.496Z,44.63
2018-08-24T14:58:34.279Z,45.29
2018-08-24T15:01:02.981Z,45.23
2018-08-24T15:03:31.800Z,45.07
2018-08-24T15:06:00.633Z,44.92
2018-08-24T15:08:30.227Z,45.69
2018-08-24T15:10:58.904Z,45.43
2018-08-24T15:13:28.336Z,45.54
2018-08-24T15:15:56.992Z,43.82
2018-08-24T15:18:25.914Z,43.59
2018-08-24T15:20:54.577Z,42.53
2018-08-24T15:23:23.306Z,42.39
2018-08-24T15:25:52.177Z,41.74
2018-08-24T15:28:20.898Z,42.92
2018-08-24T15:30:49.640Z,43.18
2018-08-24T15:33:19.115Z,44.92
2018-08-24T15:35:48.406Z,44.17
2018-08-24T15:38:17.272Z,44.02
2018-08-24T15:40:46.489Z,44.44
2018-08-24T15:43:15.250Z,46.93
2018-08-24T15:45:44.076Z,46.18
2018-08-24T15:48:12.895Z,46.22
2018-08-24T15:50:42.276Z,46.38
2018-08-24T15:53:11.244Z,47.51
2018-08-24T15:55:39.979Z,48.45
2018-08-24T15:58:10.507Z,47.80
2018-08-24T16:00:39.822Z,49.12
2018-08-24T16:03:11.372Z,49.52
2018-08-24T16:05:39.984Z,49.87
2018-08-24T16:08:08.803Z,49.19
2018-08-24T16:10:39.315Z,47.78
2018-08-24T16:13:08.412Z,47.15
2018-08-24T16:15:37.181Z,47.68
2018-08-24T16:18:11.494Z,46.77
2018-08-24T16:20:40.156Z,45.49
2018-08-24T16:23:09.473Z,44.51
2018-08-24T16:25:38.197Z,43.86
2018-08-24T16:28:07.975Z,43.61
2018-08-24T16:30:36.664Z,44.52
2018-08-24T16:33:06.178Z,44.13
2018-08-24T16:35:35.009Z,43.18
2018-08-24T16:38:03.682Z,43.62
2018-08-24T16:40:32.365Z,43.43
2018-08-24T16:43:01.276Z,43.66
2018-08-24T16:45:30.007Z,43.71
2018-08-24T16:47:58.703Z,44.04
2018-08-24T16:50:27.457Z,43.79
2018-08-24T16:52:56.199Z,43.69
2018-08-24T16:55:25.844Z,44.17
2018-08-24T16:57:56.069Z,43.30
2018-08-24T17:00:24.849Z,43.73
2018-08-24T17:02:53.655Z,44.27
2018-08-24T17:05:23.498Z,44.46
2018-08-24T17:07:52.785Z,45.14
2018-08-24T17:10:21.676Z,45.21
2018-08-24T17:12:50.570Z,45.62
2018-08-24T17:15:19.426Z,46.19
2018-08-24T17:17:48.168Z,46.65
2018-08-24T17:20:16.853Z,46.91
2018-08-24T17:22:45.480Z,47.39
2018-08-24T17:25:14.341Z,47.83
2018-08-24T17:27:43.005Z,47.97
2018-08-24T17:30:11.637Z,48.88
2018-08-24T17:32:40.289Z,48.63
2018-08-24T17:35:11.910Z,49.80
2018-08-24T17:37:40.626Z,50.24
2018-08-24T17:40:11.165Z,51.44
2018-08-24T17:42:39.936Z,51.87
2018-08-24T17:45:09.071Z,52.35
2018-08-24T17:47:37.883Z,52.18
2018-08-24T17:50:07.080Z,52.28
2018-08-24T17:52:35.787Z,52.89
2018-08-24T17:55:04.461Z,53.19
2018-08-24T17:57:33.522Z,53.84
2018-08-24T18:00:02.230Z,53.92
2018-08-24T18:02:30.926Z,53.66
2018-08-24T18:05:00.762Z,53.72
2018-08-24T18:07:29.513Z,53.97
2018-08-24T18:09:58.477Z,54.44
2018-08-24T18:12:29.176Z,53.61
2018-08-24T18:14:58.085Z,53.94
2018-08-24T18:17:26.683Z,53.88
2018-08-24T18:19:57.251Z,53.93
2018-08-24T18:22:26.191Z,54.25
2018-08-24T18:24:55.033Z,54.12
2018-08-24T18:27:23.752Z,54.01
2018-08-24T18:29:52.418Z,54.02
2018-08-24T18:32:21.168Z,54.00
2018-08-24T18:34:50.114Z,54.57
2018-08-24T18:37:18.822Z,55.49
2018-08-24T18:39:47.429Z,56.26
2018-08-24T18:42:16.155Z,56.94
2018-08-24T18:44:44.874Z,57.12
2018-08-24T18:47:13.536Z,57.53
2018-08-24T18:49:42.194Z,57.37
2018-08-24T18:52:11.300Z,56.87
2018-08-24T18:54:40.051Z,57.52
2018-08-24T18:57:08.752Z,57.44
2018-08-24T18:59:37.444Z,57.14
2018-08-24T19:02:06.158Z,57.16
2018-08-24T19:04:34.936Z,57.30
2018-08-24T19:07:03.679Z,56.69
2018-08-24T19:09:32.364Z,56.07
2018-08-24T19:12:06.521Z,55.39
2018-08-24T19:14:35.216Z,56.32
2018-08-24T19:17:03.945Z,55.17
2018-08-24T19:19:38.217Z,55.55
2018-08-24T19:22:07.128Z,55.21
2018-08-24T19:24:37.372Z,55.37
2018-08-24T19:27:07.219Z,54.73
2018-08-24T19:29:42.957Z,54.92
2018-08-24T19:32:11.656Z,54.99
2018-08-24T19:34:40.342Z,55.53
2018-08-24T19:37:09.032Z,55.13
2018-08-24T19:39:37.769Z,54.51
2018-08-24T19:42:11.967Z,54.22
2018-08-24T19:44:40.720Z,54.28
2018-08-24T19:47:13.774Z,54.27
2018-08-24T19:49:42.458Z,54.09
2018-08-24T19:52:11.267Z,55.11
2018-08-24T19:54:40.280Z,54.87
2018-08-24T19:57:14.163Z,55.08
2018-08-24T19:59:43.216Z,55.72
2018-08-24T20:02:11.863Z,56.15
2018-08-24T20:04:40.539Z,56.05
2018-08-24T20:07:14.704Z,55.90
2018-08-24T20:09:48.864Z,55.92
2018-08-24T20:12:17.528Z,54.99
2018-08-24T20:14:52.500Z,54.79
2018-08-24T20:17:26.614Z,55.34
2018-08-24T20:19:55.440Z,55.32
2018-08-24T20:22:24.728Z,55.60
2018-08-24T20:24:53.590Z,55.95
2018-08-24T20:27:22.707Z,55.92
2018-08-24T20:29:52.231Z,56.39
2018-08-24T20:32:20.912Z,56.62
2018-08-24T20:34:49.589Z,56.60
2018-08-24T20:37:18.280Z,56.94
2018-08-24T20:39:46.916Z,57.43
2018-08-24T20:42:16.168Z,57.56
2018-08-24T20:44:44.812Z,56.96
2018-08-24T20:47:13.593Z,56.56
2018-08-24T20:49:42.195Z,56.51
2018-08-24T20:52:10.936Z,56.37
2018-08-24T20:54:39.619Z,57.78
2018-08-24T20:57:08.331Z,57.20
2018-08-24T20:59:36.977Z,57.14
2018-08-24T21:02:06.364Z,57.14
2018-08-24T21:04:35.078Z,58.12
2018-08-24T21:07:04.116Z,58.32
2018-08-24T21:09:32.774Z,58.52
2018-08-24T21:12:01.523Z,58.53
2018-08-24T21:14:30.804Z,58.70
2018-08-24T21:16:59.457Z,59.06
2018-08-24T21:19:28.128Z,58.85
2018-08-24T21:21:56.813Z,59.37
2018-08-24T21:24:25.915Z,58.63
2018-08-24T21:26:54.607Z,58.83
2018-08-24T21:29:23.328Z,58.75
2018-08-24T21:31:51.973Z,59.35
2018-08-24T21:34:20.663Z,59.75
2018-08-24T21:36:49.318Z,60.56
2018-08-24T21:39:18.027Z,60.72
2018-08-24T21:41:46.672Z,61.07
2018-08-24T21:44:15.396Z,60.82
2018-08-24T21:46:44.058Z,60.91
2018-08-24T21:49:12.743Z,61.65
2018-08-24T21:51:41.475Z,62.52
2018-08-24T21:54:10.154Z,62.29
2018-08-24T21:56:38.836Z,62.67
2018-08-24T21:59:07.570Z,62.86
2018-08-24T22:01:36.271Z,63.14
2018-08-24T22:04:04.960Z,62.84
2018-08-24T22:06:33.646Z,63.03
2018-08-24T22:09:02.356Z,63.74
2018-08-24T22:11:31.066Z,63.77
2018-08-24T22:13:59.734Z,63.55
2018-08-24T22:16:28.417Z,63.33
2018-08-24T22:18:57.108Z,63.59
2018-08-24T22:21:25.761Z,63.00
2018-08-24T22:23:54.380Z,62.32
2018-08-24T22:26:23.073Z,62.69
2018-08-24T22:28:51.872Z,62.45
2018-08-24T22:31:20.794Z,62.44
2018-08-24T22:33:49.443Z,62.71
2018-08-24T22:36:18.131Z,62.48
2018-08-24T22:38:46.800Z,62.26
2018-08-24T22:41:15.452Z,62.30
2018-08-24T22:43:44.157Z,61.97
2018-08-24T22:46:12.844Z,62.20
2018-08-24T22:48:41.524Z,62.04
2018-08-24T22:51:10.524Z,62.23
2018-08-24T22:53:39.200Z,61.89
2018-08-24T22:56:07.892Z,61.77
2018-08-24T22:58:36.565Z,61.30
2018-08-24T23:01:05.225Z,61.55
2018-08-24T23:03:34.015Z,61.78
2018-08-24T23:06:02.708Z,62.09
2018-08-24T23:08:31.432Z,62.29
2018-08-24T23:11:00.167Z,61.54
2018-08-24T23:13:28.864Z,61.30
2018-08-24T23:15:58.029Z,61.58
2018-08-24T23:18:26.715Z,61.71
2018-08-24T23:20:55.402Z,62.09
2018-08-24T23:23:24.159Z,62.02
2018-08-24T23:25:52.844Z,62.23
2018-08-24T23:28:21.563Z,62.39
2018-08-24T23:30:50.216Z,62.69
2018-08-24T23:33:18.898Z,62.96
2018-08-24T23:35:47.569Z,63.22
2018-08-24T23:38:16.255Z,62.81
2018-08-24T23:40:45.006Z,63.48
2018-08-24T23:43:13.908Z,62.69
2018-08-24T23:45:42.651Z,63.00
2018-08-24T23:48:11.324Z,63.00
2018-08-24T23:50:40.032Z,63.34
2018-08-24T23:53:08.659Z,63.25
2018-08-24T23:55:37.369Z,63.16
2018-08-24T23:58:06.515Z,64.00
